createdAt,value
2022-09-12T00:08:54.461Z,80.15
2022-09-12T00:19:00.688Z,80.22
2022-09-12T00:29:06.893Z,80.15
2022-09-12T00:39:13.045Z,80.47
2022-09-12T00:49:19.416Z,80.44
2022-09-12T00:59:25.761Z,80.38
2022-09-12T01:09:32.048Z,80.26
2022-09-12T01:19:38.079Z,79.76
2022-09-12T01:29:44.581Z,79.87
2022-09-12T01:39:50.819Z,80.19
2022-09-12T01:49:57.400Z,80.12
2022-09-12T02:00:03.646Z,80.05
2022-09-12T02:10:09.709Z,80.00
2022-09-12T02:20:25.992Z,79.61
2022-09-12T02:30:27.155Z,79.72
2022-09-12T02:40:33.428Z,79.73
2022-09-12T02:50:40.006Z,79.67
2022-09-12T03:00:45.926Z,79.67
2022-09-12T03:10:52.057Z,79.52
2022-09-12T03:20:58.255Z,79.62
2022-09-12T03:31:05.990Z,79.39
2022-09-12T03:41:11.684Z,79.28
2022-09-12T03:51:19.745Z,79.01
2022-09-12T04:01:25.882Z,79.09
2022-09-12T04:11:32.017Z,79.10
2022-09-12T04:21:38.245Z,78.83
2022-09-12T04:31:44.317Z,79.10
2022-09-12T04:41:50.552Z,78.73
2022-09-12T04:51:56.701Z,78.51
2022-09-12T05:02:03.264Z,78.72
2022-09-12T05:12:09.722Z,78.16
2022-09-12T05:22:15.804Z,78.71
2022-09-12T05:32:23.549Z,78.86
2022-09-12T05:42:29.257Z,79.52
2022-09-12T05:52:37.674Z,79.72
2022-09-12T06:02:43.726Z,79.44
2022-09-12T06:12:49.877Z,79.38
2022-09-12T06:22:57.752Z,79.44
2022-09-12T06:33:03.323Z,79.68
2022-09-12T06:43:09.070Z,79.20
2022-09-12T06:53:15.068Z,80.16
2022-09-12T07:03:21.354Z,80.03
2022-09-12T07:13:27.655Z,80.28
2022-09-12T07:23:33.737Z,80.20
2022-09-12T07:33:39.992Z,79.54
2022-09-12T07:43:46.317Z,78.53
2022-09-12T07:53:53.229Z,76.91
2022-09-12T08:03:59.240Z,76.13
2022-09-12T08:14:05.411Z,76.02
2022-09-12T08:24:11.972Z,78.36
2022-09-12T08:34:18.399Z,79.26
2022-09-12T08:44:24.671Z,78.50
2022-09-12T08:54:30.987Z,80.56
2022-09-12T09:04:37.011Z,79.59
2022-09-12T09:14:43.086Z,79.64
2022-09-12T09:24:48.994Z,77.32
2022-09-12T09:34:54.847Z,75.90
2022-09-12T09:45:00.661Z,75.05
2022-09-12T09:55:07.188Z,74.60
2022-09-12T10:05:13.454Z,74.75
2022-09-12T10:15:19.605Z,74.11
2022-09-12T10:25:26.028Z,74.78
2022-09-12T10:35:32.346Z,74.43
2022-09-12T10:45:38.872Z,73.88
2022-09-12T10:55:45.560Z,73.32
2022-09-12T11:05:52.250Z,71.96
2022-09-12T11:15:58.776Z,71.21
2022-09-12T11:26:05.403Z,69.91
2022-09-12T11:36:12.221Z,68.21
2022-09-12T11:46:18.881Z,66.85
2022-09-12T11:56:25.651Z,62.60
2022-09-12T12:06:31.723Z,61.13
2022-09-12T12:16:38.258Z,61.79
2022-09-12T12:26:44.744Z,60.79
2022-09-12T12:36:51.024Z,59.56
2022-09-12T12:46:57.058Z,59.56
2022-09-12T12:57:02.847Z,59.50
2022-09-12T13:08:39.682Z,58.85
2022-09-12T13:18:44.140Z,59.43
2022-09-12T13:28:49.784Z,60.26
2022-09-12T13:38:55.153Z,60.08
2022-09-12T13:49:00.822Z,60.10
2022-09-12T13:59:06.793Z,59.05
2022-09-12T14:09:12.679Z,58.36
2022-09-12T14:19:19.694Z,59.52
2022-09-12T14:29:25.142Z,59.61
2022-09-12T14:39:31.119Z,61.04
2022-09-12T14:49:36.958Z,61.84
2022-09-12T14:59:42.700Z,62.79
2022-09-12T15:09:48.147Z,62.90
2022-09-12T15:19:53.905Z,63.75
2022-09-12T15:29:59.322Z,64.47
2022-09-12T15:40:04.874Z,64.88
2022-09-12T15:50:10.061Z,66.20
2022-09-12T16:00:16.158Z,67.64
2022-09-12T16:10:22.189Z,67.91
2022-09-12T16:20:28.008Z,67.67
2022-09-12T16:30:33.804Z,69.02
2022-09-12T16:40:39.645Z,64.28
2022-09-12T16:50:45.394Z,65.58
2022-09-12T17:00:51.317Z,65.80
2022-09-12T17:10:57.028Z,66.02
2022-09-12T17:21:02.662Z,65.69
2022-09-12T17:31:09.529Z,65.95
2022-09-12T17:41:15.140Z,66.53
2022-09-12T17:51:20.651Z,66.45
2022-09-12T18:01:26.282Z,66.75
2022-09-12T18:11:31.944Z,67.47
2022-09-12T18:21:37.544Z,67.85
2022-09-12T18:31:43.878Z,68.56
2022-09-12T18:41:49.403Z,69.61
2022-09-12T18:51:54.759Z,70.46
2022-09-12T19:02:01.032Z,70.90
2022-09-12T19:12:07.643Z,71.06
2022-09-12T19:22:14.131Z,71.99
2022-09-12T19:32:20.310Z,72.75
2022-09-12T19:42:26.290Z,73.26
2022-09-12T19:52:32.346Z,73.69
2022-09-12T20:02:39.184Z,73.99
2022-09-12T20:12:45.264Z,74.30
2022-09-12T20:22:51.448Z,74.86
2022-09-12T20:32:57.864Z,74.88
2022-09-12T20:43:04.342Z,75.02
2022-09-12T20:53:10.594Z,75.18
2022-09-12T21:03:16.831Z,75.34
2022-09-12T21:13:22.988Z,75.46
2022-09-12T21:23:29.229Z,75.57
2022-09-12T21:33:35.494Z,75.62
2022-09-12T21:43:41.630Z,75.72
2022-09-12T21:53:47.849Z,75.84
2022-09-12T22:03:54.178Z,75.97
2022-09-12T22:14:00.104Z,76.08
2022-09-12T22:24:06.439Z,76.06
2022-09-12T22:34:12.395Z,76.11
2022-09-12T22:44:18.623Z,76.22
2022-09-12T22:54:24.970Z,76.33
2022-09-12T23:04:32.718Z,76.29
2022-09-12T23:14:38.323Z,76.28
2022-09-12T23:24:46.274Z,76.16
2022-09-12T23:34:52.522Z,76.14
2022-09-12T23:44:58.739Z,76.18
2022-09-12T23:55:05.088Z,76.27
